Terminal Aerodrome Forecast
Issued by NWS

Home | Current Version | Previous Version | Text Only | Print | Product List | Glossary On
Versions: 1 2 3 4 5 6 7 8 9 10 11 12 13 14 15 16 17 18 19 20 21 22 23 24 25 26 27 28 29 30 31 32
000
FTUS44 KHGX 101635 AAA
TAFCXO
TAF AMD
KCXO 101635Z 1017/1112 20007KT P6SM VCTS SCT035CB SCT045
      TEMPO 1017/1018 VRB15KT 4SM TSRA SCT025CB BKN035
     FM102100 17006KT P6SM FEW040
     FM110600 16003KT P6SM FEW250=

USA.gov is the U.S. government's official web portal to all federal, state and local government web resources and services.